Time;durP1;ratioP1;P1;durP2;ratioP2;P2;SDS_P1;SDS_P2;PMS_P1;PMS_P2;Temp;Humidity;BMP_temperature;BMP_pressure;BME280_temperature;BME280_humidity;BME280_pressure;Samples;Min_cycle;Max_cycle;Signal;HPM_P1;HPM_P2
2024/01/27 00:00:50;;;;;;;;;;;1.00;99.90;;;-146.41;100.00;57768.22;5022155;28;1147;-71
2024/01/27 00:03:17;;;;;;;;;;;1.10;99.90;;;-146.41;100.00;57768.22;5001266;28;1902;-71
2024/01/27 00:05:44;;;;;;;;;;;1.00;99.90;;;-146.41;100.00;57768.22;5019283;28;1437;-71
2024/01/27 00:08:11;;;;;;;;;;;1.00;99.90;;;-146.41;100.00;57768.22;5002642;28;1236;-70
2024/01/27 00:10:38;;;;;;;;;;;1.00;99.90;;;-146.41;100.00;57768.22;5019769;28;1251;-70
2024/01/27 00:13:05;;;;;;;;;;;1.00;99.90;;;-146.41;100.00;57768.22;5019115;28;1231;-71
2024/01/27 00:15:32;;;;;;;;;;;1.00;99.90;;;-146.41;100.00;57768.22;5003644;28;1473;-71
2024/01/27 00:17:59;;;;;;;;;;;0.90;99.90;;;-146.41;100.00;57768.22;5004147;28;1308;-70
2024/01/27 00:20:26;;;;;;;;;;;0.90;99.90;;;-146.41;100.00;57768.22;5020895;28;1297;-71
2024/01/27 00:22:53;;;;;;;;;;;0.80;99.90;;;-146.41;100.00;57768.22;5021374;28;1984;-71
2024/01/27 00:25:20;;;;;;;;;;;0.80;99.90;;;-146.41;100.00;57768.22;5034176;28;1319;-70
2024/01/27 00:27:47;;;;;;;;;;;0.70;99.90;;;-146.41;100.00;57768.22;5002817;28;1545;-71
2024/01/27 00:30:14;;;;;;;;;;;0.60;99.90;;;-146.41;100.00;57768.22;5019761;28;1385;-71
2024/01/27 00:32:41;;;;;;;;;;;0.60;99.90;;;-146.41;100.00;57768.22;5020043;28;1283;-70
2024/01/27 00:35:11;;;;;;;;;;;0.60;99.90;;;-146.41;100.00;57768.22;5019431;28;1345;-70
2024/01/27 00:37:38;;;;;;;;;;;0.60;99.90;;;-146.41;100.00;57768.22;5018899;28;1244;-71
2024/01/27 00:40:08;;;;;;;;;;;0.60;99.90;;;-146.41;100.00;57768.22;5019916;28;1223;-71
2024/01/27 00:42:35;;;;;;;;;;;0.60;99.90;;;-146.41;100.00;57768.22;5016852;28;1910;-72
2024/01/27 00:45:04;;;;;;;;;;;0.50;99.90;;;-146.41;100.00;57768.22;5019282;28;1407;-70
2024/01/27 00:47:31;;;;;;;;;;;0.40;99.90;;;-146.41;100.00;57768.22;5018829;28;1335;-71
2024/01/27 00:49:58;;;;;;;;;;;0.50;99.90;;;-146.41;100.00;57768.22;5003153;28;1242;-70
2024/01/27 00:52:25;;;;;;;;;;;0.50;99.90;;;-146.41;100.00;57768.22;5003494;28;1195;-71
2024/01/27 00:54:51;;;;;;;;;;;0.50;99.90;;;-146.41;100.00;57768.22;5019754;28;1391;-71
2024/01/27 00:57:18;;;;;;;;;;;0.50;99.90;;;-146.41;100.00;57768.22;5017561;28;1214;-71
2024/01/27 00:59:46;;;;;;;;;;;0.50;99.90;;;-146.41;100.00;57768.22;5020044;28;1311;-71
2024/01/27 01:02:12;;;;;;;;;;;0.50;99.90;;;-146.41;100.00;57768.22;5020437;28;2016;-70
2024/01/27 01:04:40;;;;;;;;;;;0.50;99.90;;;-146.41;100.00;57768.22;5018807;28;1422;-71
2024/01/27 01:07:07;;;;;;;;;;;0.40;99.90;;;-146.41;100.00;57768.22;5020085;28;1182;-70
2024/01/27 01:09:34;;;;;;;;;;;0.40;99.90;;;-146.41;100.00;57768.22;5024632;28;1273;-72
2024/01/27 01:12:01;;;;;;;;;;;0.30;99.90;;;-146.41;100.00;57768.22;5025206;28;1108;-71
2024/01/27 01:14:28;;;;;;;;;;;0.40;99.90;;;-146.41;100.00;57768.22;5007548;28;1474;-71
2024/01/27 01:16:54;;;;;;;;;;;0.40;99.90;;;-146.41;100.00;57768.22;5025571;28;1243;-71
2024/01/27 01:19:21;;;;;;;;;;;0.30;99.90;;;-146.41;100.00;57768.22;5005077;28;1457;-72
2024/01/27 01:21:48;;;;;;;;;;;0.40;99.90;;;-146.41;100.00;57768.22;5026306;28;1227;-71
2024/01/27 01:24:15;;;;;;;;;;;0.30;99.90;;;-146.41;100.00;57768.22;5041564;28;1942;-71
2024/01/27 01:26:42;;;;;;;;;;;0.30;99.90;;;-146.41;100.00;57768.22;5025668;28;1188;-72
2024/01/27 01:29:09;;;;;;;;;;;0.30;99.90;;;-146.41;100.00;57768.22;5025673;28;1223;-71
2024/01/27 01:31:36;;;;;;;;;;;0.30;99.90;;;-146.41;100.00;57768.22;5025186;28;1579;-70
2024/01/27 01:34:03;;;;;;;;;;;0.30;99.90;;;-146.41;100.00;57768.22;5024493;28;1249;-71
2024/01/27 01:36:29;;;;;;;;;;;0.30;99.90;;;-146.41;100.00;57768.22;5025807;28;1215;-71
2024/01/27 01:38:56;;;;;;;;;;;0.30;99.90;;;-146.41;100.00;57768.22;5025743;28;1437;-71
2024/01/27 01:41:24;;;;;;;;;;;0.20;99.90;;;-146.41;100.00;57768.22;5024444;28;1319;-70
2024/01/27 01:43:51;;;;;;;;;;;0.20;99.90;;;-146.41;100.00;57768.22;5017686;28;1967;-72
2024/01/27 01:46:18;;;;;;;;;;;0.10;99.90;;;-146.41;100.00;57768.22;5002213;28;1592;-71
2024/01/27 01:48:45;;;;;;;;;;;0.10;99.90;;;-146.41;100.00;57768.22;5007443;28;1229;-71
2024/01/27 01:51:12;;;;;;;;;;;0.00;99.90;;;-146.41;100.00;57768.22;5007880;28;1201;-71
2024/01/27 01:53:39;;;;;;;;;;;0.00;99.90;;;-146.41;100.00;57768.22;5025127;28;1406;-71
2024/01/27 01:56:08;;;;;;;;;;;0.00;99.90;;;-146.41;100.00;57768.22;5023995;28;1049;-71
2024/01/27 01:58:35;;;;;;;;;;;0.00;99.90;;;-146.41;100.00;57768.22;5024084;28;1225;-71
2024/01/27 02:01:02;;;;;;;;;;;0.00;99.90;;;-146.41;100.00;57768.22;5026002;28;1392;-71
2024/01/27 02:03:29;;;;;;;;;;;0.00;99.90;;;-146.41;100.00;57768.22;5008219;28;1926;-72
2024/01/27 02:05:56;;;;;;;;;;;0.00;99.90;;;-146.41;100.00;57768.22;5025207;28;1284;-71
2024/01/27 02:08:23;;;;;;;;;;;0.00;99.90;;;-146.41;100.00;57768.22;5024936;28;1169;-71
2024/01/27 02:10:50;;;;;;;;;;;0.00;99.90;;;-146.41;100.00;57768.22;5024780;28;1409;-70
2024/01/27 02:13:21;;;;;;;;;;;0.00;99.90;;;-146.41;100.00;57768.22;5004210;28;1323;-71
2024/01/27 02:15:49;;;;;;;;;;;0.00;99.90;;;-146.41;100.00;57768.22;5025557;28;1284;-71
2024/01/27 02:18:16;;;;;;;;;;;-0.10;99.90;;;-146.41;100.00;57768.22;5022027;28;1358;-71
2024/01/27 02:20:44;;;;;;;;;;;-0.10;99.90;;;-146.41;100.00;57768.22;5009793;28;1125;-71
2024/01/27 02:23:11;;;;;;;;;;;-0.10;99.90;;;-146.41;100.00;57768.22;5025066;28;1910;-71
2024/01/27 02:25:38;;;;;;;;;;;-0.10;99.90;;;-146.41;100.00;57768.22;5025257;28;1338;-71
2024/01/27 02:28:05;;;;;;;;;;;-0.10;99.90;;;-146.41;100.00;57768.22;5024939;28;1153;-70
2024/01/27 02:30:32;;;;;;;;;;;-0.10;99.90;;;-146.41;100.00;57768.22;5026421;28;1077;-70
2024/01/27 02:32:59;;;;;;;;;;;-0.10;99.90;;;-146.41;100.00;57768.22;5025162;28;1189;-70
2024/01/27 02:35:26;;;;;;;;;;;-0.10;99.90;;;-146.41;100.00;57768.22;5000852;28;1375;-71
2024/01/27 02:37:53;;;;;;;;;;;-0.20;99.90;;;-146.41;100.00;57768.22;5024740;28;1387;-71
2024/01/27 02:40:20;;;;;;;;;;;-0.20;99.90;;;-146.41;100.00;57768.22;5022859;28;1169;-71
2024/01/27 02:42:46;;;;;;;;;;;-0.20;99.90;;;-146.41;100.00;57768.22;5024807;28;1922;-71
2024/01/27 02:45:13;;;;;;;;;;;-0.20;99.90;;;-146.41;100.00;57768.22;5027621;28;1406;-71
2024/01/27 02:47:40;;;;;;;;;;;-0.20;99.90;;;-146.41;100.00;57768.22;5027130;28;1142;-71
2024/01/27 02:50:08;;;;;;;;;;;-0.20;99.90;;;-146.41;100.00;57768.22;5027495;28;1014;-72
2024/01/27 02:52:35;;;;;;;;;;;-0.20;99.90;;;-146.41;100.00;57768.22;5027546;28;1244;-71
2024/01/27 02:55:02;;;;;;;;;;;-0.20;99.90;;;-146.41;100.00;57768.22;5009748;28;1447;-71
2024/01/27 02:57:30;;;;;;;;;;;-0.20;99.90;;;-146.41;100.00;57768.22;5010869;28;1060;-71
2024/01/27 02:59:57;;;;;;;;;;;-0.20;99.90;;;-146.41;100.00;57768.22;5028320;28;1145;-70
2024/01/27 03:02:23;;;;;;;;;;;-0.30;99.90;;;-146.41;100.00;57768.22;5026832;28;1287;-71
2024/01/27 03:04:50;;;;;;;;;;;-0.30;99.90;;;-146.41;100.00;57768.22;5027840;28;1985;-72
2024/01/27 03:07:17;;;;;;;;;;;-0.30;99.90;;;-146.41;100.00;57768.22;5027182;28;1140;-71
2024/01/27 03:09:44;;;;;;;;;;;-0.30;99.90;;;-146.41;100.00;57768.22;5003917;28;1054;-72
2024/01/27 03:12:11;;;;;;;;;;;-0.20;99.90;;;-146.41;100.00;57768.22;5025855;28;1009;-70
2024/01/27 03:14:38;;;;;;;;;;;-0.20;99.90;;;-146.41;100.00;57768.22;5026507;28;1378;-71
2024/01/27 03:17:04;;;;;;;;;;;-0.30;99.90;;;-146.41;100.00;57768.22;5026684;28;1217;-71
2024/01/27 03:19:32;;;;;;;;;;;-0.30;99.90;;;-146.41;100.00;57768.22;5027390;28;1024;-71
2024/01/27 03:21:59;;;;;;;;;;;-0.40;99.90;;;-146.41;100.00;57768.22;5026766;28;2055;-70
2024/01/27 03:24:26;;;;;;;;;;;-0.40;99.90;;;-146.41;100.00;57768.22;5027008;28;1977;-71
2024/01/27 03:26:53;;;;;;;;;;;-0.40;99.90;;;-146.41;100.00;57768.22;5026083;28;1081;-71
2024/01/27 03:29:19;;;;;;;;;;;-0.40;99.90;;;-146.41;100.00;57768.22;5026610;28;1073;-71
2024/01/27 03:31:46;;;;;;;;;;;-0.60;99.90;;;-146.41;100.00;57768.22;5026559;28;1181;-71
2024/01/27 03:34:14;;;;;;;;;;;-0.80;99.90;;;-146.41;100.00;57768.22;5009752;28;1284;-70
2024/01/27 03:36:41;;;;;;;;;;;-1.00;99.90;;;-146.41;100.00;57768.22;4987003;28;1135225;-71
2024/01/27 03:39:08;;;;;;;;;;;-1.00;99.90;;;-146.41;100.00;57768.22;5028249;28;1087;-71
2024/01/27 03:41:35;;;;;;;;;;;-0.90;99.90;;;-146.41;100.00;57768.22;5026330;28;1064;-71
2024/01/27 03:44:02;;;;;;;;;;;-0.80;99.90;;;-146.41;100.00;57768.22;5026812;28;1991;-71
2024/01/27 03:46:29;;;;;;;;;;;-0.80;99.90;;;-146.41;100.00;57768.22;5027185;28;1224;-71
2024/01/27 03:48:56;;;;;;;;;;;-0.70;99.90;;;-146.41;100.00;57768.22;5028085;28;1486;-71
2024/01/27 03:51:25;;;;;;;;;;;-0.70;99.90;;;-146.41;100.00;57768.22;5013480;28;1227;-71
2024/01/27 03:53:52;;;;;;;;;;;-0.60;99.90;;;-146.41;100.00;57768.22;5043581;28;1300;-71
2024/01/27 03:56:19;;;;;;;;;;;-0.60;99.90;;;-146.41;100.00;57768.22;5026328;28;1375;-71
2024/01/27 03:58:46;;;;;;;;;;;-0.60;99.90;;;-146.41;100.00;57768.22;5042778;28;1165;-71
2024/01/27 04:01:14;;;;;;;;;;;-0.60;99.90;;;-146.41;100.00;57768.22;5009418;28;1087;-71
2024/01/27 04:03:41;;;;;;;;;;;-0.50;99.90;;;-146.41;100.00;57768.22;5029694;28;1914;-70
2024/01/27 04:06:08;;;;;;;;;;;-0.50;99.90;;;-146.41;100.00;57768.22;5027920;28;1267;-70
2024/01/27 04:08:35;;;;;;;;;;;-0.50;99.90;;;-146.41;100.00;57768.22;5026183;28;1130;-71
2024/01/27 04:11:01;;;;;;;;;;;-0.50;99.90;;;-146.41;100.00;57768.22;5027456;28;1045;-71
2024/01/27 04:13:29;;;;;;;;;;;-0.50;99.90;;;-146.41;100.00;57768.22;5027177;28;1122;-71
2024/01/27 04:15:59;;;;;;;;;;;-0.50;99.90;;;-146.41;100.00;57768.22;5026631;28;1230;-71
2024/01/27 04:18:26;;;;;;;;;;;-0.50;99.90;;;-146.41;100.00;57768.22;5026738;28;1153;-72
2024/01/27 04:20:53;;;;;;;;;;;-0.50;99.90;;;-146.41;100.00;57768.22;5009786;28;1447;-71
2024/01/27 04:23:20;;;;;;;;;;;-0.50;99.90;;;-146.41;100.00;57768.22;5027191;28;1910;-71
2024/01/27 04:25:47;;;;;;;;;;;-0.60;99.90;;;-146.41;100.00;57768.22;5027277;28;1367;-71
2024/01/27 04:28:13;;;;;;;;;;;-0.60;99.90;;;-146.41;100.00;57768.22;5025517;28;1287;-71
2024/01/27 04:30:40;;;;;;;;;;;-0.60;99.90;;;-146.41;100.00;57768.22;5032193;28;1099;-71
2024/01/27 04:33:07;;;;;;;;;;;-0.80;99.90;;;-146.41;100.00;57768.22;5025625;28;1126;-71
2024/01/27 04:35:35;;;;;;;;;;;-1.00;99.90;;;-146.41;100.00;57768.22;5026932;28;1292;-71
2024/01/27 04:38:02;;;;;;;;;;;-1.20;99.90;;;-146.41;100.00;57768.22;5026999;28;1515;-71
2024/01/27 04:40:29;;;;;;;;;;;-1.20;99.90;;;-146.41;100.00;57768.22;5027233;28;1112;-71
2024/01/27 04:42:56;;;;;;;;;;;-1.20;99.90;;;-146.41;100.00;57768.22;5024810;28;1273;-71
2024/01/27 04:45:23;;;;;;;;;;;-1.30;99.90;;;-146.41;100.00;57768.22;5010292;28;1898;-71
2024/01/27 04:47:50;;;;;;;;;;;-1.20;99.90;;;-146.41;100.00;57768.22;5026283;28;1400;-71
2024/01/27 04:50:17;;;;;;;;;;;-1.20;99.90;;;-146.41;100.00;57768.22;5010409;28;1336;-72
2024/01/27 04:52:44;;;;;;;;;;;-1.30;99.90;;;-146.41;100.00;57768.22;5042793;28;1145;-71
2024/01/27 04:55:11;;;;;;;;;;;-1.30;99.90;;;-146.41;100.00;57768.22;5026764;28;1296;-72
2024/01/27 04:57:38;;;;;;;;;;;-1.30;99.90;;;-146.41;100.00;57768.22;5041312;28;1107;-71
2024/01/27 05:00:11;;;;;;;;;;;-1.20;99.90;;;-146.41;100.00;57768.22;5026996;28;1110;-71
2024/01/27 05:02:42;;;;;;;;;;;-1.30;99.90;;;-146.41;100.00;57768.22;5026362;28;1248;-71
2024/01/27 05:05:09;;;;;;;;;;;-1.40;99.90;;;-146.41;100.00;57768.22;5026014;28;1973;-71
2024/01/27 05:07:36;;;;;;;;;;;-1.40;99.90;;;-146.41;100.00;57768.22;5026295;28;1078;-70
2024/01/27 05:10:03;;;;;;;;;;;-1.40;99.90;;;-146.41;100.00;57768.22;5026476;28;1117;-71
2024/01/27 05:12:30;;;;;;;;;;;-1.40;99.90;;;-146.41;100.00;57768.22;5025208;28;1062;-71
2024/01/27 05:14:57;;;;;;;;;;;-1.50;99.90;;;-146.41;100.00;57768.22;5008949;28;1285;-71
2024/01/27 05:17:23;;;;;;;;;;;-1.40;99.90;;;-146.41;100.00;57768.22;5025901;28;1181;-71
2024/01/27 05:19:51;;;;;;;;;;;-1.50;99.90;;;-146.41;100.00;57768.22;5026704;28;1054;-71
2024/01/27 05:22:18;;;;;;;;;;;-1.60;99.90;;;-146.41;100.00;57768.22;5025799;28;1106;-71
2024/01/27 05:24:44;;;;;;;;;;;-1.60;99.90;;;-146.41;100.00;57768.22;5025626;28;1922;-71
2024/01/27 05:27:11;;;;;;;;;;;-1.60;99.90;;;-146.41;100.00;57768.22;5025635;28;1133;-71
2024/01/27 05:29:38;;;;;;;;;;;-1.60;99.90;;;-146.41;100.00;57768.22;5026321;28;1043;-70
2024/01/27 05:32:05;;;;;;;;;;;-1.70;99.90;;;-146.41;100.00;57768.22;5025449;28;1197;-71
2024/01/27 05:34:32;;;;;;;;;;;-1.70;99.90;;;-146.41;100.00;57768.22;5025991;28;1383;-72
2024/01/27 05:36:59;;;;;;;;;;;-1.70;99.90;;;-146.41;100.00;57768.22;5023219;28;1107;-71
2024/01/27 05:39:26;;;;;;;;;;;-1.70;99.90;;;-146.41;100.00;57768.22;5005884;28;1217;-71
2024/01/27 05:41:53;;;;;;;;;;;-1.60;99.90;;;-146.41;100.00;57768.22;5001843;28;1149;-71
2024/01/27 05:44:20;;;;;;;;;;;-1.40;99.90;;;-146.41;100.00;57768.22;5025521;28;2242;-70
2024/01/27 05:46:47;;;;;;;;;;;-1.30;99.90;;;-146.41;100.00;57768.22;5025414;28;1394;-70
2024/01/27 05:49:13;;;;;;;;;;;-1.20;99.90;;;-146.41;100.00;57768.22;5025450;28;1459;-71
2024/01/27 05:51:40;;;;;;;;;;;-1.20;99.90;;;-146.41;100.00;57768.22;5007757;28;1022;-71
2024/01/27 05:54:08;;;;;;;;;;;-1.30;99.90;;;-146.41;100.00;57768.22;5024152;28;1285;-71
2024/01/27 05:56:36;;;;;;;;;;;-1.40;99.90;;;-146.41;100.00;57768.22;5025304;28;1154;-72
2024/01/27 05:59:03;;;;;;;;;;;-1.50;99.90;;;-146.41;100.00;57768.22;5025539;28;1122;-71
2024/01/27 06:01:30;;;;;;;;;;;-1.50;99.90;;;-146.41;100.00;57768.22;5025339;28;999;-71
2024/01/27 06:03:57;;;;;;;;;;;-1.60;99.90;;;-146.41;100.00;57768.22;5025128;28;2001;-71
2024/01/27 06:06:24;;;;;;;;;;;-1.50;99.90;;;-146.41;100.00;57768.22;5044241;28;1096;-70
2024/01/27 06:08:51;;;;;;;;;;;-1.50;99.90;;;-146.41;100.00;57768.22;5025113;28;1201;-71
2024/01/27 06:11:25;;;;;;;;;;;-1.50;99.90;;;-146.41;100.00;57768.22;5025091;28;1347;-71
2024/01/27 06:13:51;;;;;;;;;;;-1.50;99.90;;;-146.41;100.00;57768.22;5025312;28;1479;-71
2024/01/27 06:16:19;;;;;;;;;;;-1.50;99.90;;;-146.41;100.00;57768.22;5001091;28;1161;-71
2024/01/27 06:18:46;;;;;;;;;;;-1.60;99.90;;;-146.41;100.00;57768.22;5000250;28;1312;-71
2024/01/27 06:21:13;;;;;;;;;;;-1.60;99.90;;;-146.41;100.00;57768.22;5024346;28;1158;-71
2024/01/27 06:23:40;;;;;;;;;;;-1.50;99.90;;;-146.41;100.00;57768.22;5004115;28;1916;-71
2024/01/27 06:26:07;;;;;;;;;;;-1.50;99.90;;;-146.41;100.00;57768.22;5025366;28;1127;-70
2024/01/27 06:28:35;;;;;;;;;;;-1.60;99.90;;;-146.41;100.00;57768.22;5015777;28;1354;-71
2024/01/27 06:31:05;;;;;;;;;;;-1.70;99.90;;;-146.41;100.00;57768.22;5040229;28;1042;-72
2024/01/27 06:33:34;;;;;;;;;;;-1.80;99.90;;;-146.41;100.00;57768.22;5039431;28;1190;-71
2024/01/27 06:36:01;;;;;;;;;;;-1.70;99.90;;;-146.41;100.00;57768.22;5023979;28;1162;-71
2024/01/27 06:38:28;;;;;;;;;;;-1.80;99.90;;;-146.41;100.00;57768.22;5007290;28;1088;-71
2024/01/27 06:40:55;;;;;;;;;;;-1.70;99.90;;;-146.41;100.00;57768.22;5023622;28;1362;-71
2024/01/27 06:43:23;;;;;;;;;;;-1.70;99.90;;;-146.41;100.00;57768.22;5024419;28;1368;-70
2024/01/27 06:45:50;;;;;;;;;;;-1.80;99.90;;;-146.41;100.00;57768.22;5024687;28;1989;-71
2024/01/27 06:48:16;;;;;;;;;;;-1.90;99.90;;;-146.41;100.00;57768.22;5038076;28;1157;-71
2024/01/27 06:50:43;;;;;;;;;;;-1.90;99.90;;;-146.41;100.00;57768.22;5024752;28;1028;-71
2024/01/27 06:53:10;;;;;;;;;;;-1.80;99.90;;;-146.41;100.00;57768.22;5020912;28;1224;-71
2024/01/27 06:55:37;;;;;;;;;;;-1.80;99.90;;;-146.41;100.00;57768.22;5024296;28;1284;-72
2024/01/27 06:58:09;;;;;;;;;;;-1.90;99.90;;;-146.41;100.00;57768.22;5007688;28;1209;-72
2024/01/27 07:00:36;;;;;;;;;;;-1.90;99.90;;;-146.41;100.00;57768.22;5026832;28;1042;-70
2024/01/27 07:03:04;;;;;;;;;;;-1.90;99.90;;;-146.41;100.00;57768.22;5006438;28;1197;-71
2024/01/27 07:05:33;;;;;;;;;;;-1.90;99.90;;;-146.41;100.00;57768.22;5001618;28;1894;-71
2024/01/27 07:08:00;;;;;;;;;;;-1.90;99.90;;;-146.41;100.00;57768.22;5039512;28;1072;-71
2024/01/27 07:10:26;;;;;;;;;;;-2.00;99.90;;;-146.41;100.00;57768.22;5024743;28;1291;-71
2024/01/27 07:12:53;;;;;;;;;;;-1.90;99.90;;;-146.41;100.00;57768.22;5023930;28;1185;-70
2024/01/27 07:15:21;;;;;;;;;;;-2.00;99.90;;;-146.41;100.00;57768.22;5023173;28;1390;-71
2024/01/27 07:17:48;;;;;;;;;;;-1.90;99.90;;;-146.41;100.00;57768.22;5023704;28;999;-71
2024/01/27 07:20:15;;;;;;;;;;;-1.80;99.90;;;-146.41;100.00;57768.22;5024371;28;1364;-71
2024/01/27 07:22:42;;;;;;;;;;;-1.70;99.90;;;-146.41;100.00;57768.22;5039502;28;1039;-71
2024/01/27 07:25:10;;;;;;;;;;;-1.60;99.90;;;-146.41;100.00;57768.22;5024505;28;1899;-71
2024/01/27 07:27:37;;;;;;;;;;;-1.60;99.90;;;-146.41;100.00;57768.22;5024140;28;1277;-71
2024/01/27 07:30:05;;;;;;;;;;;-1.60;99.90;;;-146.41;100.00;57768.22;5027211;28;1070;-71
2024/01/27 07:32:32;;;;;;;;;;;-1.70;99.90;;;-146.41;100.00;57768.22;5027887;28;1125;-71
2024/01/27 07:34:59;;;;;;;;;;;-1.70;99.90;;;-146.41;100.00;57768.22;5027633;28;1284;-70
2024/01/27 07:37:26;;;;;;;;;;;-1.70;99.90;;;-146.41;100.00;57768.22;5003660;28;1059;-70
2024/01/27 07:39:53;;;;;;;;;;;-1.50;99.90;;;-146.41;100.00;57768.22;5010562;28;1030;-71
2024/01/27 07:42:19;;;;;;;;;;;-1.50;99.90;;;-146.41;100.00;57768.22;5025169;28;1084;-70
2024/01/27 07:44:47;;;;;;;;;;;-1.40;99.90;;;-146.41;100.00;57768.22;5012581;28;2417;-71
2024/01/27 07:47:14;;;;;;;;;;;-1.60;99.90;;;-146.41;100.00;57768.22;5026250;28;1071;-70
2024/01/27 07:49:41;;;;;;;;;;;-1.70;99.90;;;-146.41;100.00;57768.22;5010099;28;1351;-71
2024/01/27 07:52:08;;;;;;;;;;;-1.70;99.90;;;-146.41;100.00;57768.22;5026698;28;1142;-72
2024/01/27 07:54:38;;;;;;;;;;;-1.60;99.90;;;-146.41;100.00;57768.22;5009149;28;1363;-71
2024/01/27 07:57:06;;;;;;;;;;;-1.40;99.90;;;-146.41;100.00;57768.22;5011356;28;1174;-71
2024/01/27 07:59:33;;;;;;;;;;;-1.20;99.90;;;-146.41;100.00;57768.22;5042342;28;1236;-71
2024/01/27 08:02:00;;;;;;;;;;;-1.10;99.90;;;-146.41;100.00;57768.22;5009080;28;1046;-71
2024/01/27 08:04:27;;;;;;;;;;;-1.20;99.90;;;-146.41;100.00;57768.22;5009129;28;1930;-71
2024/01/27 08:06:54;;;;;;;;;;;-1.20;99.90;;;-146.41;100.00;57768.22;5026767;28;1311;-71
2024/01/27 08:09:21;;;;;;;;;;;-1.20;99.90;;;-146.41;100.00;57768.22;5042134;28;1044;-71
2024/01/27 08:11:51;;;;;;;;;;;-1.10;99.90;;;-146.41;100.00;57768.22;5026135;28;1090;-71
2024/01/27 08:14:19;;;;;;;;;;;-1.10;99.90;;;-146.41;100.00;57768.22;5026103;28;1383;-71
2024/01/27 08:16:47;;;;;;;;;;;-1.20;99.90;;;-146.41;100.00;57768.22;5027456;28;1347;-71
2024/01/27 08:19:19;;;;;;;;;;;-1.10;99.90;;;-146.41;100.00;57768.22;5027503;28;1223;-71
2024/01/27 08:21:47;;;;;;;;;;;-1.10;99.90;;;-146.41;100.00;57768.22;5026981;28;1533;-71
2024/01/27 08:24:14;;;;;;;;;;;-1.10;99.90;;;-146.41;100.00;57768.22;5013080;28;1954;-71
2024/01/27 08:26:42;;;;;;;;;;;-1.00;99.90;;;-146.41;100.00;57768.22;5027560;28;1138;-71
2024/01/27 08:29:09;;;;;;;;;;;-0.90;99.90;;;-146.41;100.00;57768.22;5041892;28;1126;-71
2024/01/27 08:31:37;;;;;;;;;;;-0.80;99.90;;;-146.41;100.00;57768.22;5044310;28;1170;-72
2024/01/27 08:34:04;;;;;;;;;;;-0.70;99.90;;;-146.41;100.00;57768.22;5008357;28;1354;-71
2024/01/27 08:36:33;;;;;;;;;;;-0.70;99.90;;;-146.41;100.00;57768.22;5024426;28;1123;-71
2024/01/27 08:39:01;;;;;;;;;;;-0.60;99.90;;;-146.41;100.00;57768.22;5026201;28;1150;-71
2024/01/27 08:41:28;;;;;;;;;;;-0.50;99.90;;;-146.41;100.00;57768.22;5026853;28;1251;-71
2024/01/27 08:43:55;;;;;;;;;;;-0.50;99.90;;;-146.41;100.00;57768.22;5026247;28;1351;-71
2024/01/27 08:46:22;;;;;;;;;;;-0.50;99.90;;;-146.41;100.00;57768.22;5026648;28;1906;-72
2024/01/27 08:48:49;;;;;;;;;;;-0.50;99.90;;;-146.41;100.00;57768.22;5026397;28;1054;-72
2024/01/27 08:51:17;;;;;;;;;;;-0.40;99.90;;;-146.41;100.00;57768.22;5041669;28;1193;-71
2024/01/27 08:53:50;;;;;;;;;;;-0.40;99.90;;;-146.41;100.00;57768.22;5026036;28;1327;-71
2024/01/27 08:56:17;;;;;;;;;;;-0.30;99.90;;;-146.41;100.00;57768.22;5025923;28;1150;-71
2024/01/27 08:58:44;;;;;;;;;;;-0.30;99.90;;;-146.41;100.00;57768.22;5025210;28;1229;-70
2024/01/27 09:01:14;;;;;;;;;;;-0.20;99.90;;;-146.41;100.00;57768.22;5026493;28;1044;-71
2024/01/27 09:03:41;;;;;;;;;;;-0.20;99.90;;;-146.41;100.00;57768.22;5025863;28;1402;-71
2024/01/27 09:06:09;;;;;;;;;;;-0.10;99.90;;;-146.41;100.00;57768.22;5025657;28;1995;-71
2024/01/27 09:08:36;;;;;;;;;;;0.00;99.90;;;-146.41;100.00;57768.22;5025938;28;1090;-71
2024/01/27 09:11:03;;;;;;;;;;;0.10;99.90;;;-146.41;100.00;57768.22;5015797;28;1162;-71
2024/01/27 09:13:30;;;;;;;;;;;0.10;99.90;;;-146.41;100.00;57768.22;5024317;28;1094;-71
2024/01/27 09:15:58;;;;;;;;;;;0.20;99.90;;;-146.41;100.00;57768.22;5009735;28;1461;-71
2024/01/27 09:18:26;;;;;;;;;;;0.30;99.90;;;-146.41;100.00;57768.22;5041933;28;1084;-71
2024/01/27 09:20:54;;;;;;;;;;;0.30;99.90;;;-146.41;100.00;57768.22;5027804;28;1343;-71
2024/01/27 09:23:21;;;;;;;;;;;0.40;99.90;;;-146.41;100.00;57768.22;5001596;28;1051;-70
2024/01/27 09:25:48;;;;;;;;;;;;;;;-146.41;100.00;57768.22;5025300;28;1911;-71
2024/01/27 09:28:15;;;;;;;;;;;0.70;99.90;;;-146.41;100.00;57768.22;5003445;28;1190;-70
2024/01/27 09:30:43;;;;;;;;;;;0.80;99.90;;;-146.41;100.00;57768.22;5025801;28;1288;-71
2024/01/27 09:33:10;;;;;;;;;;;0.90;99.90;;;-146.41;100.00;57768.22;5024191;28;1098;-71
2024/01/27 09:35:37;;;;;;;;;;;1.00;99.90;;;-146.41;100.00;57768.22;5020982;28;1382;-72
2024/01/27 09:38:05;;;;;;;;;;;1.10;99.90;;;-146.41;100.00;57768.22;5008581;28;1016;-71
2024/01/27 09:40:32;;;;;;;;;;;1.10;99.90;;;-146.41;100.00;57768.22;5042687;28;1972;-71
2024/01/27 09:43:00;;;;;;;;;;;1.30;99.90;;;-146.41;100.00;57768.22;5024088;28;1396;-71
2024/01/27 09:45:27;;;;;;;;;;;1.30;99.90;;;-146.41;100.00;57768.22;5025273;28;1895;-72
2024/01/27 09:47:57;;;;;;;;;;;1.40;99.90;;;-146.41;100.00;57768.22;5025608;28;1323;-70
2024/01/27 09:50:24;;;;;;;;;;;1.50;99.90;;;-146.41;100.00;57768.22;5025326;28;1061;-70
2024/01/27 09:52:52;;;;;;;;;;;1.70;99.90;;;-146.41;100.00;57768.22;5039584;28;1062;-72
2024/01/27 09:55:19;;;;;;;;;;;1.80;99.90;;;-146.41;100.00;57768.22;5024647;28;1261;-71
2024/01/27 09:57:46;;;;;;;;;;;1.90;99.90;;;-146.41;100.00;57768.22;5023122;28;1331;-71
2024/01/27 10:00:13;;;;;;;;;;;1.90;99.90;;;-146.41;100.00;57768.22;5003120;28;1104;-72
2024/01/27 10:02:42;;;;;;;;;;;2.00;99.90;;;-146.41;100.00;57768.22;5004600;28;1217;-72
2024/01/27 10:05:11;;;;;;;;;;;2.20;99.90;;;-146.41;100.00;57768.22;5024841;28;1902;-70
2024/01/27 10:07:37;;;;;;;;;;;2.30;99.90;;;-146.41;100.00;57768.22;5023274;28;1774;-71
2024/01/27 10:10:05;;;;;;;;;;;2.50;99.90;;;-146.41;100.00;57768.22;5024641;28;1065;-71
2024/01/27 10:12:37;;;;;;;;;;;2.60;99.90;;;-146.41;100.00;57768.22;5041061;28;1060;-72
2024/01/27 10:15:04;;;;;;;;;;;2.60;99.90;;;-146.41;100.00;57768.22;5017636;28;1268;-71
2024/01/27 10:17:36;;;;;;;;;;;2.70;99.90;;;-146.41;100.00;57768.22;5025518;28;1349;-71
2024/01/27 10:20:04;;;;;;;;;;;2.80;99.90;;;-146.41;100.00;57768.22;5026300;28;1567;-71
2024/01/27 10:22:39;;;;;;;;;;;2.90;99.90;;;-146.41;100.00;57768.22;5007887;28;1356;-71
2024/01/27 10:25:06;;;;;;;;;;;2.90;99.90;;;-146.41;100.00;57768.22;5007278;28;1985;-72
2024/01/27 10:27:33;;;;;;;;;;;3.00;99.90;;;-146.41;100.00;57768.22;5039380;28;1109;-70
2024/01/27 10:30:00;;;;;;;;;;;3.00;99.90;;;-146.41;100.00;57768.22;5023439;28;1118;-72
2024/01/27 10:32:28;;;;;;;;;;;3.10;99.90;;;-146.41;100.00;57768.22;5022136;28;1144;-72
2024/01/27 10:35:10;;;;;;;;;;;3.20;99.90;;;-146.41;100.00;57768.22;5007012;28;1426;-71
2024/01/27 10:37:39;;;;;;;;;;;;;;;-146.41;100.00;57768.22;5021010;28;1253;-71
2024/01/27 10:40:10;;;;;;;;;;;;;;;-146.41;100.00;57768.22;5025349;28;1193;-71
2024/01/27 10:42:37;;;;;;;;;;;3.50;99.90;;;-146.41;100.00;57768.22;5036425;28;1204;-71
2024/01/27 10:45:05;;;;;;;;;;;3.80;99.90;;;-146.41;100.00;57768.22;5023863;22;1998;-72
2024/01/27 10:47:32;;;;;;;;;;;4.00;99.90;;;-146.41;100.00;57768.22;4979427;28;1166;-71
2024/01/27 10:50:00;;;;;;;;;;;4.10;99.90;;;-146.41;100.00;57768.22;4977545;28;1164;-72
2024/01/27 10:52:37;;;;;;;;;;;4.20;99.90;;;-146.41;100.00;57768.22;4962526;28;1206;-72
2024/01/27 10:55:08;;;;;;;;;;;4.30;99.90;;;-146.41;100.00;57768.22;4975211;28;1498;-71
2024/01/27 10:57:36;;;;;;;;;;;4.50;99.90;;;-146.41;100.00;57768.22;4976827;28;1361;-72
2024/01/27 11:00:08;;;;;;;;;;;4.60;99.90;;;-146.41;100.00;57768.22;4976933;28;1314;-72
2024/01/27 11:02:35;;;;;;;;;;;4.90;99.90;;;-146.41;100.00;57768.22;4976809;28;1267;-71
2024/01/27 11:05:07;;;;;;;;;;;5.10;99.90;;;-146.41;100.00;57768.22;4983145;28;1977;-71